sensor_id;sensor_type;location;lat;lon;timestamp;pressure;altitude;pressure_sealevel;temperature;humidity
24762;BME280;12865;51.934;10.330;2023-09-12T00:00:11;98817.03;;;20.92;100.00
24762;BME280;12865;51.934;10.330;2023-09-12T00:02:57;98814.97;;;20.88;100.00
24762;BME280;12865;51.934;10.330;2023-09-12T00:05:59;98816.41;;;20.90;100.00
24762;BME280;12865;51.934;10.330;2023-09-12T00:08:45;98819.94;;;20.91;100.00
24762;BME280;12865;51.934;10.330;2023-09-12T00:11:31;98810.38;;;20.88;100.00
24762;BME280;12865;51.934;10.330;2023-09-12T00:14:17;98807.44;;;20.90;100.00
24762;BME280;12865;51.934;10.330;2023-09-12T00:17:03;98804.50;;;20.91;100.00
24762;BME280;12865;51.934;10.330;2023-09-12T00:19:48;98807.00;;;20.93;100.00
24762;BME280;12865;51.934;10.330;2023-09-12T00:22:34;98813.69;;;20.90;100.00
24762;BME280;12865;51.934;10.330;2023-09-12T00:25:21;98815.41;;;20.78;100.00
24762;BME280;12865;51.934;10.330;2023-09-12T00:28:06;98808.53;;;20.75;100.00
24762;BME280;12865;51.934;10.330;2023-09-12T00:30:52;98814.00;;;20.62;100.00
24762;BME280;12865;51.934;10.330;2023-09-12T00:33:38;98808.03;;;20.47;100.00
24762;BME280;12865;51.934;10.330;2023-09-12T00:36:24;98809.88;;;20.47;100.00
24762;BME280;12865;51.934;10.330;2023-09-12T00:39:09;98808.66;;;20.49;100.00
24762;BME280;12865;51.934;10.330;2023-09-12T00:41:55;98820.13;;;20.45;100.00
24762;BME280;12865;51.934;10.330;2023-09-12T00:44:41;98816.16;;;20.27;100.00
24762;BME280;12865;51.934;10.330;2023-09-12T00:47:28;98820.75;;;20.27;100.00
24762;BME280;12865;51.934;10.330;2023-09-12T00:50:16;98815.34;;;20.27;100.00
24762;BME280;12865;51.934;10.330;2023-09-12T00:53:03;98817.63;;;20.30;100.00
24762;BME280;12865;51.934;10.330;2023-09-12T00:55:56;98811.00;;;20.39;100.00
24762;BME280;12865;51.934;10.330;2023-09-12T00:58:43;98821.16;;;20.44;100.00
24762;BME280;12865;51.934;10.330;2023-09-12T01:01:29;98818.47;;;20.37;100.00
24762;BME280;12865;51.934;10.330;2023-09-12T01:04:14;98807.00;;;20.28;100.00
24762;BME280;12865;51.934;10.330;2023-09-12T01:07:02;98814.75;;;20.18;100.00
24762;BME280;12865;51.934;10.330;2023-09-12T01:09:47;98804.53;;;20.07;100.00
24762;BME280;12865;51.934;10.330;2023-09-12T01:12:33;98790.19;;;20.07;100.00
24762;BME280;12865;51.934;10.330;2023-09-12T01:15:19;98784.56;;;20.08;100.00
24762;BME280;12865;51.934;10.330;2023-09-12T01:18:05;98776.84;;;20.05;100.00
24762;BME280;12865;51.934;10.330;2023-09-12T01:21:05;98768.53;;;20.00;100.00
24762;BME280;12865;51.934;10.330;2023-09-12T01:30:02;98767.50;;;20.08;100.00
24762;BME280;12865;51.934;10.330;2023-09-12T01:32:49;98767.91;;;20.18;100.00
24762;BME280;12865;51.934;10.330;2023-09-12T01:35:35;98805.56;;;20.19;100.00
24762;BME280;12865;51.934;10.330;2023-09-12T01:38:21;98805.19;;;20.09;100.00
24762;BME280;12865;51.934;10.330;2023-09-12T01:41:08;98795.19;;;20.10;100.00
24762;BME280;12865;51.934;10.330;2023-09-12T01:43:54;98795.22;;;19.96;100.00
24762;BME280;12865;51.934;10.330;2023-09-12T01:46:42;98783.97;;;19.93;100.00
24762;BME280;12865;51.934;10.330;2023-09-12T01:49:28;98772.31;;;19.86;100.00
24762;BME280;12865;51.934;10.330;2023-09-12T01:52:14;98774.81;;;19.87;100.00
24762;BME280;12865;51.934;10.330;2023-09-12T01:55:01;98807.84;;;20.22;100.00
24762;BME280;12865;51.934;10.330;2023-09-12T01:57:48;98803.53;;;19.95;100.00
24762;BME280;12865;51.934;10.330;2023-09-12T02:00:34;98804.75;;;19.99;100.00
24762;BME280;12865;51.934;10.330;2023-09-12T02:03:20;98799.56;;;20.04;100.00
24762;BME280;12865;51.934;10.330;2023-09-12T02:06:05;98814.75;;;20.18;100.00
24762;BME280;12865;51.934;10.330;2023-09-12T02:08:51;98808.06;;;20.14;100.00
24762;BME280;12865;51.934;10.330;2023-09-12T02:11:37;98818.06;;;20.20;100.00
24762;BME280;12865;51.934;10.330;2023-09-12T02:14:22;98821.81;;;20.19;100.00
24762;BME280;12865;51.934;10.330;2023-09-12T02:17:08;98824.31;;;20.34;100.00
24762;BME280;12865;51.934;10.330;2023-09-12T02:19:54;98819.09;;;20.26;100.00
24762;BME280;12865;51.934;10.330;2023-09-12T02:22:39;98826.22;;;20.00;100.00
24762;BME280;12865;51.934;10.330;2023-09-12T02:25:25;98830.97;;;20.05;100.00
24762;BME280;12865;51.934;10.330;2023-09-12T02:28:11;98833.06;;;20.10;100.00
24762;BME280;12865;51.934;10.330;2023-09-12T02:30:56;98836.00;;;19.95;100.00
24762;BME280;12865;51.934;10.330;2023-09-12T02:33:42;98821.84;;;19.86;100.00
24762;BME280;12865;51.934;10.330;2023-09-12T02:36:28;98832.47;;;19.81;100.00
24762;BME280;12865;51.934;10.330;2023-09-12T02:39:13;98842.25;;;19.89;100.00
24762;BME280;12865;51.934;10.330;2023-09-12T02:41:59;98842.25;;;19.76;100.00
24762;BME280;12865;51.934;10.330;2023-09-12T02:44:45;98840.16;;;19.71;100.00
24762;BME280;12865;51.934;10.330;2023-09-12T02:47:31;98845.16;;;19.68;100.00
24762;BME280;12865;51.934;10.330;2023-09-12T02:50:16;98836.41;;;19.66;100.00
24762;BME280;12865;51.934;10.330;2023-09-12T02:53:02;98838.47;;;19.57;100.00
24762;BME280;12865;51.934;10.330;2023-09-12T02:55:48;98839.28;;;19.44;100.00
24762;BME280;12865;51.934;10.330;2023-09-12T02:58:33;98847.03;;;19.54;100.00
24762;BME280;12865;51.934;10.330;2023-09-12T03:01:20;98860.53;;;19.47;100.00
24762;BME280;12865;51.934;10.330;2023-09-12T03:04:06;98853.22;;;19.41;100.00
24762;BME280;12865;51.934;10.330;2023-09-12T03:06:52;98851.75;;;19.32;100.00
24762;BME280;12865;51.934;10.330;2023-09-12T03:09:38;98851.75;;;19.32;100.00
24762;BME280;12865;51.934;10.330;2023-09-12T03:12:24;98849.88;;;19.33;100.00
24762;BME280;12865;51.934;10.330;2023-09-12T03:15:10;98846.72;;;19.29;100.00
24762;BME280;12865;51.934;10.330;2023-09-12T03:17:55;98851.53;;;19.27;100.00
24762;BME280;12865;51.934;10.330;2023-09-12T03:20:41;98847.38;;;19.31;100.00
24762;BME280;12865;51.934;10.330;2023-09-12T03:23:27;98845.47;;;19.25;100.00
24762;BME280;12865;51.934;10.330;2023-09-12T03:26:13;98850.88;;;19.25;100.00
24762;BME280;12865;51.934;10.330;2023-09-12T03:28:59;98845.88;;;19.22;100.00
24762;BME280;12865;51.934;10.330;2023-09-12T03:31:44;98854.22;;;19.27;100.00
24762;BME280;12865;51.934;10.330;2023-09-12T03:34:30;98860.03;;;19.24;100.00
24762;BME280;12865;51.934;10.330;2023-09-12T03:37:16;98867.09;;;19.25;100.00
24762;BME280;12865;51.934;10.330;2023-09-12T03:40:01;98866.47;;;19.30;100.00
24762;BME280;12865;51.934;10.330;2023-09-12T03:42:48;98862.50;;;19.12;100.00
24762;BME280;12865;51.934;10.330;2023-09-12T03:45:33;98862.06;;;19.09;100.00
24762;BME280;12865;51.934;10.330;2023-09-12T03:48:19;98873.28;;;19.06;100.00
24762;BME280;12865;51.934;10.330;2023-09-12T03:51:05;98868.91;;;19.05;100.00
24762;BME280;12865;51.934;10.330;2023-09-12T03:53:50;98866.44;;;19.10;100.00
24762;BME280;12865;51.934;10.330;2023-09-12T03:56:36;98866.44;;;19.10;100.00
24762;BME280;12865;51.934;10.330;2023-09-12T03:59:22;98864.56;;;19.10;100.00
24762;BME280;12865;51.934;10.330;2023-09-12T04:02:08;98866.22;;;19.11;100.00
24762;BME280;12865;51.934;10.330;2023-09-12T04:04:54;98866.63;;;19.08;100.00
24762;BME280;12865;51.934;10.330;2023-09-12T04:07:39;98853.53;;;19.05;100.00
24762;BME280;12865;51.934;10.330;2023-09-12T04:10:25;98856.44;;;19.04;100.00
24762;BME280;12865;51.934;10.330;2023-09-12T04:13:11;98866.41;;;19.03;100.00
24762;BME280;12865;51.934;10.330;2023-09-12T04:15:56;98866.22;;;19.05;100.00
24762;BME280;12865;51.934;10.330;2023-09-12T04:18:42;98869.13;;;19.03;100.00
24762;BME280;12865;51.934;10.330;2023-09-12T04:21:29;98881.59;;;19.04;100.00
24762;BME280;12865;51.934;10.330;2023-09-12T04:24:15;98881.97;;;19.01;100.00
24762;BME280;12865;51.934;10.330;2023-09-12T04:27:03;98880.31;;;19.00;100.00
24762;BME280;12865;51.934;10.330;2023-09-12T04:29:48;98889.03;;;18.96;100.00
24762;BME280;12865;51.934;10.330;2023-09-12T04:32:34;98901.03;;;18.87;100.00
24762;BME280;12865;51.934;10.330;2023-09-12T04:35:20;98899.81;;;18.89;100.00
24762;BME280;12865;51.934;10.330;2023-09-12T04:38:06;98901.44;;;18.83;100.00
24762;BME280;12865;51.934;10.330;2023-09-12T04:40:55;98916.81;;;18.83;100.00
24762;BME280;12865;51.934;10.330;2023-09-12T04:43:41;98936.75;;;18.82;100.00
24762;BME280;12865;51.934;10.330;2023-09-12T04:46:28;98938.41;;;18.76;100.00
24762;BME280;12865;51.934;10.330;2023-09-12T04:49:14;98932.34;;;18.74;100.00
24762;BME280;12865;51.934;10.330;2023-09-12T04:52:00;98937.94;;;18.73;100.00
24762;BME280;12865;51.934;10.330;2023-09-12T04:54:45;98932.72;;;18.71;100.00
24762;BME280;12865;51.934;10.330;2023-09-12T04:57:31;98932.53;;;18.73;100.00
24762;BME280;12865;51.934;10.330;2023-09-12T05:00:18;98926.53;;;18.71;100.00
24762;BME280;12865;51.934;10.330;2023-09-12T05:03:04;98930.44;;;18.68;100.00
24762;BME280;12865;51.934;10.330;2023-09-12T05:05:49;98932.13;;;18.69;100.00
24762;BME280;12865;51.934;10.330;2023-09-12T05:08:35;98935.88;;;18.75;100.00
24762;BME280;12865;51.934;10.330;2023-09-12T05:11:22;98933.41;;;18.80;100.00
24762;BME280;12865;51.934;10.330;2023-09-12T05:14:09;98921.38;;;18.82;100.00
24762;BME280;12865;51.934;10.330;2023-09-12T05:16:54;98906.81;;;18.77;100.00
24762;BME280;12865;51.934;10.330;2023-09-12T05:19:40;98913.91;;;18.78;100.00
24762;BME280;12865;51.934;10.330;2023-09-12T05:22:26;98912.63;;;18.80;100.00
24762;BME280;12865;51.934;10.330;2023-09-12T05:25:12;98920.16;;;18.85;100.00
24762;BME280;12865;51.934;10.330;2023-09-12T05:27:58;98926.22;;;18.94;100.00
24762;BME280;12865;51.934;10.330;2023-09-12T05:30:44;98922.69;;;19.00;100.00
24762;BME280;12865;51.934;10.330;2023-09-12T05:33:29;98916.28;;;19.01;100.00
24762;BME280;12865;51.934;10.330;2023-09-12T05:36:15;98909.63;;;19.03;100.00
24762;BME280;12865;51.934;10.330;2023-09-12T05:39:01;98921.09;;;19.05;100.00
24762;BME280;12865;51.934;10.330;2023-09-12T05:41:46;98928.59;;;19.16;100.00
24762;BME280;12865;51.934;10.330;2023-09-12T05:44:32;98930.47;;;19.16;100.00
24762;BME280;12865;51.934;10.330;2023-09-12T05:47:18;98922.84;;;19.26;100.00
24762;BME280;12865;51.934;10.330;2023-09-12T05:50:05;98924.31;;;19.42;100.00
24762;BME280;12865;51.934;10.330;2023-09-12T05:52:52;98926.88;;;19.56;100.00
24762;BME280;12865;51.934;10.330;2023-09-12T05:55:37;98930.88;;;19.74;100.00
24762;BME280;12865;51.934;10.330;2023-09-12T05:58:23;98925.91;;;19.90;100.00
24762;BME280;12865;51.934;10.330;2023-09-12T06:01:09;98927.56;;;20.05;100.00
24762;BME280;12865;51.934;10.330;2023-09-12T06:03:54;98931.75;;;20.20;100.00
24762;BME280;12865;51.934;10.330;2023-09-12T06:06:40;98935.13;;;20.35;100.00
24762;BME280;12865;51.934;10.330;2023-09-12T06:09:26;98933.22;;;20.49;100.00
24762;BME280;12865;51.934;10.330;2023-09-12T06:12:12;98938.22;;;20.65;100.00
24762;BME280;12865;51.934;10.330;2023-09-12T06:14:57;98930.88;;;20.79;100.00
24762;BME280;12865;51.934;10.330;2023-09-12T06:17:43;98941.69;;;20.92;100.00
24762;BME280;12865;51.934;10.330;2023-09-12T06:20:29;98950.00;;;20.97;100.00
24762;BME280;12865;51.934;10.330;2023-09-12T06:23:14;98944.38;;;20.99;100.00
24762;BME280;12865;51.934;10.330;2023-09-12T06:26:00;98946.66;;;21.08;100.00
24762;BME280;12865;51.934;10.330;2023-09-12T06:28:45;98951.00;;;21.23;100.00
24762;BME280;12865;51.934;10.330;2023-09-12T06:31:32;98955.72;;;21.40;100.00
24762;BME280;12865;51.934;10.330;2023-09-12T06:34:17;98950.59;;;21.64;100.00
24762;BME280;12865;51.934;10.330;2023-09-12T06:37:03;98958.00;;;21.81;100.00
24762;BME280;12865;51.934;10.330;2023-09-12T06:39:50;98963.34;;;21.94;100.00
24762;BME280;12865;51.934;10.330;2023-09-12T06:42:36;98966.78;;;22.15;100.00
24762;BME280;12865;51.934;10.330;2023-09-12T06:45:22;98977.81;;;22.20;100.00
24762;BME280;12865;51.934;10.330;2023-09-12T06:48:07;98985.31;;;22.24;100.00
24762;BME280;12865;51.934;10.330;2023-09-12T06:50:56;99000.03;;;22.42;100.00
24762;BME280;12865;51.934;10.330;2023-09-12T06:53:42;99007.19;;;22.29;100.00
24762;BME280;12865;51.934;10.330;2023-09-12T06:56:28;99012.03;;;22.27;100.00
24762;BME280;12865;51.934;10.330;2023-09-12T06:59:13;99013.47;;;22.30;100.00
24762;BME280;12865;51.934;10.330;2023-09-12T07:01:59;99009.41;;;22.14;100.00
24762;BME280;12865;51.934;10.330;2023-09-12T07:04:45;99002.63;;;21.99;100.00
24762;BME280;12865;51.934;10.330;2023-09-12T07:07:31;99000.53;;;22.01;100.00
24762;BME280;12865;51.934;10.330;2023-09-12T07:10:17;98996.75;;;21.95;100.00
24762;BME280;12865;51.934;10.330;2023-09-12T07:13:03;99000.38;;;21.82;100.00
24762;BME280;12865;51.934;10.330;2023-09-12T07:15:50;98997.25;;;21.85;100.00
24762;BME280;12865;51.934;10.330;2023-09-12T07:18:35;98997.03;;;21.80;100.00
24762;BME280;12865;51.934;10.330;2023-09-12T07:21:21;98989.31;;;21.84;100.00
24762;BME280;12865;51.934;10.330;2023-09-12T07:24:07;98978.00;;;21.87;100.00
24762;BME280;12865;51.934;10.330;2023-09-12T07:26:53;98975.03;;;21.95;100.00
24762;BME280;12865;51.934;10.330;2023-09-12T07:29:39;98974.28;;;22.19;100.00
24762;BME280;12865;51.934;10.330;2023-09-12T07:32:24;98950.34;;;22.35;100.00
24762;BME280;12865;51.934;10.330;2023-09-12T07:35:10;98948.50;;;22.53;100.00
24762;BME280;12865;51.934;10.330;2023-09-12T07:37:56;98949.03;;;22.62;100.00
24762;BME280;12865;51.934;10.330;2023-09-12T07:40:42;98946.16;;;23.00;100.00
24762;BME280;12865;51.934;10.330;2023-09-12T07:43:28;98939.94;;;23.29;100.00
24762;BME280;12865;51.934;10.330;2023-09-12T07:46:14;98942.44;;;23.49;100.00
24762;BME280;12865;51.934;10.330;2023-09-12T07:48:59;98945.41;;;23.47;96.94
24762;BME280;12865;51.934;10.330;2023-09-12T07:51:45;98936.78;;;23.51;99.34
24762;BME280;12865;51.934;10.330;2023-09-12T07:54:31;98924.53;;;23.60;96.52
24762;BME280;12865;51.934;10.330;2023-09-12T07:57:16;98922.41;;;23.62;97.39
24762;BME280;12865;51.934;10.330;2023-09-12T08:00:04;98915.44;;;23.77;90.41
24762;BME280;12865;51.934;10.330;2023-09-12T08:02:54;98922.25;;;23.98;89.26
24762;BME280;12865;51.934;10.330;2023-09-12T08:05:40;98923.91;;;23.99;89.20
24762;BME280;12865;51.934;10.330;2023-09-12T08:08:26;98913.50;;;23.96;87.14
24762;BME280;12865;51.934;10.330;2023-09-12T08:11:11;98913.03;;;23.99;85.73
24762;BME280;12865;51.934;10.330;2023-09-12T08:13:57;98902.50;;;24.03;85.30
24762;BME280;12865;51.934;10.330;2023-09-12T08:16:43;98905.25;;;24.14;83.22
24762;BME280;12865;51.934;10.330;2023-09-12T08:19:28;98918.25;;;24.12;81.44
24762;BME280;12865;51.934;10.330;2023-09-12T08:22:14;98914.56;;;23.95;83.62
24762;BME280;12865;51.934;10.330;2023-09-12T08:25:00;98906.63;;;23.94;83.61
24762;BME280;12865;51.934;10.330;2023-09-12T08:27:46;98907.25;;;24.07;85.58
24762;BME280;12865;51.934;10.330;2023-09-12T08:30:31;98911.16;;;24.11;81.74
24762;BME280;12865;51.934;10.330;2023-09-12T08:33:18;98912.03;;;24.23;83.68
24762;BME280;12865;51.934;10.330;2023-09-12T08:36:04;98914.75;;;24.47;79.63
24762;BME280;12865;51.934;10.330;2023-09-12T08:38:50;98916.31;;;24.43;80.46
24762;BME280;12865;51.934;10.330;2023-09-12T08:41:35;98905.75;;;24.46;84.87
24762;BME280;12865;51.934;10.330;2023-09-12T08:44:21;98911.22;;;24.46;81.46
24762;BME280;12865;51.934;10.330;2023-09-12T08:47:09;98913.59;;;24.43;81.92
24762;BME280;12865;51.934;10.330;2023-09-12T08:49:58;98912.88;;;24.59;81.71
24762;BME280;12865;51.934;10.330;2023-09-12T08:52:45;98916.06;;;24.79;83.70
24762;BME280;12865;51.934;10.330;2023-09-12T08:55:31;98907.25;;;25.12;83.29
24762;BME280;12865;51.934;10.330;2023-09-12T08:58:19;98904.66;;;25.46;82.69
24762;BME280;12865;51.934;10.330;2023-09-12T09:01:06;98910.19;;;25.62;75.83
24762;BME280;12865;51.934;10.330;2023-09-12T09:03:53;98916.25;;;25.64;70.87
24762;BME280;12865;51.934;10.330;2023-09-12T09:06:40;98919.81;;;25.65;73.40
24762;BME280;12865;51.934;10.330;2023-09-12T09:09:27;98918.09;;;25.75;72.66
24762;BME280;12865;51.934;10.330;2023-09-12T09:12:14;98920.44;;;25.84;75.50
24762;BME280;12865;51.934;10.330;2023-09-12T09:15:28;98923.91;;;25.96;69.76
24762;BME280;12865;51.934;10.330;2023-09-12T09:18:14;98929.25;;;26.36;70.63
24762;BME280;12865;51.934;10.330;2023-09-12T09:21:17;98928.53;;;26.40;65.03
24762;BME280;12865;51.934;10.330;2023-09-12T09:24:08;98941.69;;;26.27;68.10
24762;BME280;12865;51.934;10.330;2023-09-12T09:26:54;98947.84;;;26.22;71.29
24762;BME280;12865;51.934;10.330;2023-09-12T09:29:46;98943.31;;;26.11;72.24
24762;BME280;12865;51.934;10.330;2023-09-12T09:32:33;98943.38;;;25.99;72.48
24762;BME280;12865;51.934;10.330;2023-09-12T09:35:19;98938.25;;;26.03;72.71
24762;BME280;12865;51.934;10.330;2023-09-12T09:38:05;98949.00;;;25.93;73.13
24762;BME280;12865;51.934;10.330;2023-09-12T09:40:51;98944.84;;;25.90;73.21
24762;BME280;12865;51.934;10.330;2023-09-12T09:43:37;98947.81;;;25.89;71.03
24762;BME280;12865;51.934;10.330;2023-09-12T09:46:23;98944.25;;;25.71;65.59
24762;BME280;12865;51.934;10.330;2023-09-12T09:49:15;98939.72;;;25.65;70.45
24762;BME280;12865;51.934;10.330;2023-09-12T09:52:04;98939.25;;;25.68;78.47
24762;BME280;12865;51.934;10.330;2023-09-12T09:54:50;98944.47;;;25.70;76.40
24762;BME280;12865;51.934;10.330;2023-09-12T09:57:38;98950.22;;;25.85;75.44
24762;BME280;12865;51.934;10.330;2023-09-12T10:00:25;98949.09;;;25.98;71.56
24762;BME280;12865;51.934;10.330;2023-09-12T10:03:11;98940.66;;;25.99;74.49
24762;BME280;12865;51.934;10.330;2023-09-12T10:06:00;98956.38;;;26.09;70.65
24762;BME280;12865;51.934;10.330;2023-09-12T10:08:51;98962.41;;;26.39;60.74
24762;BME280;12865;51.934;10.330;2023-09-12T10:11:39;98970.81;;;25.76;76.78
24762;BME280;12865;51.934;10.330;2023-09-12T10:14:26;98976.97;;;25.31;82.58
24762;BME280;12865;51.934;10.330;2023-09-12T10:17:13;98983.88;;;24.76;89.11
24762;BME280;12865;51.934;10.330;2023-09-12T10:20:08;98999.06;;;24.83;92.22
24762;BME280;12865;51.934;10.330;2023-09-12T10:23:09;98994.63;;;24.47;96.89
24762;BME280;12865;51.934;10.330;2023-09-12T10:25:57;99008.97;;;23.83;100.00
24762;BME280;12865;51.934;10.330;2023-09-12T10:28:43;99005.69;;;23.63;94.93
24762;BME280;12865;51.934;10.330;2023-09-12T10:31:30;98988.97;;;23.77;93.99
24762;BME280;12865;51.934;10.330;2023-09-12T10:34:18;98978.78;;;24.03;91.85
24762;BME280;12865;51.934;10.330;2023-09-12T10:37:04;98985.63;;;24.35;90.24
24762;BME280;12865;51.934;10.330;2023-09-12T10:39:53;98981.34;;;24.27;93.42
24762;BME280;12865;51.934;10.330;2023-09-12T10:42:39;98997.03;;;24.14;90.69
24762;BME280;12865;51.934;10.330;2023-09-12T10:45:25;98996.69;;;24.10;90.12
24762;BME280;12865;51.934;10.330;2023-09-12T10:48:11;98990.75;;;24.13;87.57
24762;BME280;12865;51.934;10.330;2023-09-12T10:50:58;98989.75;;;23.96;88.28
24762;BME280;12865;51.934;10.330;2023-09-12T10:53:49;98992.88;;;24.11;86.11
24762;BME280;12865;51.934;10.330;2023-09-12T10:56:35;98993.28;;;24.26;86.12
24762;BME280;12865;51.934;10.330;2023-09-12T10:59:21;98986.06;;;24.32;86.00
24762;BME280;12865;51.934;10.330;2023-09-12T11:02:33;98982.31;;;24.45;86.06
24762;BME280;12865;51.934;10.330;2023-09-12T11:08:14;98987.81;;;24.91;82.37
24762;BME280;12865;51.934;10.330;2023-09-12T11:11:17;98994.94;;;25.16;80.46
24762;BME280;12865;51.934;10.330;2023-09-12T11:14:05;98997.75;;;25.09;79.41
24762;BME280;12865;51.934;10.330;2023-09-12T11:17:20;98997.25;;;25.24;82.28
24762;BME280;12865;51.934;10.330;2023-09-12T11:20:07;98996.56;;;25.28;78.73
24762;BME280;12865;51.934;10.330;2023-09-12T11:23:09;99000.00;;;25.35;80.45
24762;BME280;12865;51.934;10.330;2023-09-12T11:26:06;98996.16;;;25.48;77.12
24762;BME280;12865;51.934;10.330;2023-09-12T11:28:52;99002.75;;;25.75;78.47
24762;BME280;12865;51.934;10.330;2023-09-12T11:31:40;99005.69;;;25.86;75.72
24762;BME280;12865;51.934;10.330;2023-09-12T11:34:28;99008.22;;;25.75;78.25
24762;BME280;12865;51.934;10.330;2023-09-12T11:37:22;99002.66;;;25.70;76.36
24762;BME280;12865;51.934;10.330;2023-09-12T11:42:57;99004.81;;;25.45;76.07
24762;BME280;12865;51.934;10.330;2023-09-12T11:45:44;99003.00;;;25.74;76.96
24762;BME280;12865;51.934;10.330;2023-09-12T11:48:29;99012.06;;;25.39;77.60
24762;BME280;12865;51.934;10.330;2023-09-12T11:51:15;99005.88;;;25.67;80.02
24762;BME280;12865;51.934;10.330;2023-09-12T11:54:01;99003.00;;;25.74;80.12
24762;BME280;12865;51.934;10.330;2023-09-12T11:56:49;99004.34;;;25.48;82.50
24762;BME280;12865;51.934;10.330;2023-09-12T11:59:44;98997.81;;;25.49;83.53
24762;BME280;12865;51.934;10.330;2023-09-12T12:02:37;99009.03;;;25.36;84.54
24762;BME280;12865;51.934;10.330;2023-09-12T12:05:23;99011.16;;;25.34;85.48
24762;BME280;12865;51.934;10.330;2023-09-12T12:08:09;99007.19;;;25.53;83.43
24762;BME280;12865;51.934;10.330;2023-09-12T12:10:56;99009.81;;;25.48;83.48
24762;BME280;12865;51.934;10.330;2023-09-12T12:13:44;99013.75;;;25.40;82.95
24762;BME280;12865;51.934;10.330;2023-09-12T12:16:29;99005.09;;;25.32;84.82
24762;BME280;12865;51.934;10.330;2023-09-12T12:19:15;99001.38;;;25.50;80.27
24762;BME280;12865;51.934;10.330;2023-09-12T12:22:01;99005.09;;;25.32;78.16
24762;BME280;12865;51.934;10.330;2023-09-12T12:24:47;99005.09;;;25.32;75.55
24762;BME280;12865;51.934;10.330;2023-09-12T12:27:35;98991.16;;;25.45;73.99
24762;BME280;12865;51.934;10.330;2023-09-12T12:30:21;98994.72;;;25.46;73.40
24762;BME280;12865;51.934;10.330;2023-09-12T12:33:08;98984.78;;;25.39;74.39
24762;BME280;12865;51.934;10.330;2023-09-12T12:36:02;98979.97;;;25.70;72.94
24762;BME280;12865;51.934;10.330;2023-09-12T12:38:49;98976.88;;;25.78;74.07
24762;BME280;12865;51.934;10.330;2023-09-12T12:41:35;98972.84;;;25.97;72.73
24762;BME280;12865;51.934;10.330;2023-09-12T12:44:21;98971.59;;;26.33;70.64
24762;BME280;12865;51.934;10.330;2023-09-12T12:47:08;98975.19;;;26.22;71.84
24762;BME280;12865;51.934;10.330;2023-09-12T12:49:55;98966.06;;;26.00;73.41
24762;BME280;12865;51.934;10.330;2023-09-12T12:52:41;98966.16;;;26.05;72.98
24762;BME280;12865;51.934;10.330;2023-09-12T12:55:27;98956.38;;;25.92;74.78
24762;BME280;12865;51.934;10.330;2023-09-12T13:00:40;98947.03;;;26.05;79.16
24762;BME280;12865;51.934;10.330;2023-09-12T13:03:26;98939.56;;;26.00;79.56
24762;BME280;12865;51.934;10.330;2023-09-12T13:06:12;98935.31;;;26.38;76.13
24762;BME280;12865;51.934;10.330;2023-09-12T13:09:05;98936.50;;;26.80;71.43
24762;BME280;12865;51.934;10.330;2023-09-12T13:11:51;98927.94;;;26.55;73.15
24762;BME280;12865;51.934;10.330;2023-09-12T13:14:37;98922.06;;;26.85;74.02
24762;BME280;12865;51.934;10.330;2023-09-12T13:17:23;98915.47;;;26.81;69.74
24762;BME280;12865;51.934;10.330;2023-09-12T13:20:09;98919.97;;;26.70;70.79
24762;BME280;12865;51.934;10.330;2023-09-12T13:22:55;98917.44;;;26.85;70.52
24762;BME280;12865;51.934;10.330;2023-09-12T13:25:41;98909.72;;;26.99;68.19
24762;BME280;12865;51.934;10.330;2023-09-12T13:28:26;98896.25;;;26.76;69.10
24762;BME280;12865;51.934;10.330;2023-09-12T13:31:12;98896.16;;;26.71;71.41
24762;BME280;12865;51.934;10.330;2023-09-12T13:33:58;98881.16;;;26.90;70.96
24762;BME280;12865;51.934;10.330;2023-09-12T13:36:43;98871.34;;;26.94;71.35
24762;BME280;12865;51.934;10.330;2023-09-12T13:39:29;98871.47;;;27.04;68.44
24762;BME280;12865;51.934;10.330;2023-09-12T13:42:16;98873.31;;;27.20;68.26
24762;BME280;12865;51.934;10.330;2023-09-12T13:45:05;98868.22;;;27.29;65.79
24762;BME280;12865;51.934;10.330;2023-09-12T13:47:51;98861.28;;;27.21;65.34
24762;BME280;12865;51.934;10.330;2023-09-12T13:50:37;98854.69;;;26.95;67.20
24762;BME280;12865;51.934;10.330;2023-09-12T13:53:22;98857.06;;;26.92;67.97
24762;BME280;12865;51.934;10.330;2023-09-12T13:56:08;98851.59;;;26.92;68.04
24762;BME280;12865;51.934;10.330;2023-09-12T13:58:54;98860.47;;;26.61;68.35
24762;BME280;12865;51.934;10.330;2023-09-12T14:01:39;98849.38;;;26.89;70.10
24762;BME280;12865;51.934;10.330;2023-09-12T14:04:25;98843.31;;;26.87;68.32
24762;BME280;12865;51.934;10.330;2023-09-12T14:07:11;98844.94;;;27.05;68.20
24762;BME280;12865;51.934;10.330;2023-09-12T14:09:56;98852.31;;;27.26;69.57
24762;BME280;12865;51.934;10.330;2023-09-12T14:12:42;98842.25;;;27.31;68.91
24762;BME280;12865;51.934;10.330;2023-09-12T14:15:29;98841.94;;;27.55;69.68
24762;BME280;12865;51.934;10.330;2023-09-12T14:18:16;98847.91;;;27.52;69.52
24762;BME280;12865;51.934;10.330;2023-09-12T14:21:02;98853.28;;;27.95;64.90
24762;BME280;12865;51.934;10.330;2023-09-12T14:23:48;98845.41;;;27.72;66.84
24762;BME280;12865;51.934;10.330;2023-09-12T14:26:34;98847.22;;;27.88;68.79
24762;BME280;12865;51.934;10.330;2023-09-12T14:29:19;98860.94;;;27.93;64.86
24762;BME280;12865;51.934;10.330;2023-09-12T14:32:05;98854.59;;;27.88;65.99
24762;BME280;12865;51.934;10.330;2023-09-12T14:34:51;98853.59;;;27.67;64.11
24762;BME280;12865;51.934;10.330;2023-09-12T14:37:37;98862.47;;;27.79;65.72
24762;BME280;12865;51.934;10.330;2023-09-12T14:40:23;98854.00;;;27.81;64.47